sensor_id;sensor_type;location;lat;lon;timestamp;P1;durP1;ratioP1;P2;durP2;ratioP2
52320;SDS011;38261;54.090;13.382;2023-02-11T00:00:11;36.40;;;15.17;;
52320;SDS011;38261;54.090;13.382;2023-02-11T00:01:35;34.00;;;15.60;;
52320;SDS011;38261;54.090;13.382;2023-02-11T00:02:57;32.47;;;15.23;;
52320;SDS011;38261;54.090;13.382;2023-02-11T00:04:19;31.63;;;14.87;;
52320;SDS011;38261;54.090;13.382;2023-02-11T00:05:41;35.53;;;15.90;;
52320;SDS011;38261;54.090;13.382;2023-02-11T00:07:03;39.80;;;15.37;;
52320;SDS011;38261;54.090;13.382;2023-02-11T00:08:25;31.37;;;14.70;;
52320;SDS011;38261;54.090;13.382;2023-02-11T00:09:48;35.90;;;15.73;;
52320;SDS011;38261;54.090;13.382;2023-02-11T00:11:13;38.97;;;15.37;;
52320;SDS011;38261;54.090;13.382;2023-02-11T00:12:37;37.03;;;16.00;;
52320;SDS011;38261;54.090;13.382;2023-02-11T00:14:00;31.53;;;16.00;;
52320;SDS011;38261;54.090;13.382;2023-02-11T00:15:24;38.17;;;16.73;;
52320;SDS011;38261;54.090;13.382;2023-02-11T00:16:46;36.43;;;15.63;;
52320;SDS011;38261;54.090;13.382;2023-02-11T00:18:08;35.07;;;15.97;;
52320;SDS011;38261;54.090;13.382;2023-02-11T00:19:30;31.97;;;15.37;;
52320;SDS011;38261;54.090;13.382;2023-02-11T00:20:52;32.93;;;14.70;;
52320;SDS011;38261;54.090;13.382;2023-02-11T00:22:14;35.97;;;16.23;;
52320;SDS011;38261;54.090;13.382;2023-02-11T00:23:37;32.90;;;15.50;;
52320;SDS011;38261;54.090;13.382;2023-02-11T00:24:59;29.43;;;13.97;;
52320;SDS011;38261;54.090;13.382;2023-02-11T00:26:22;35.97;;;16.23;;
52320;SDS011;38261;54.090;13.382;2023-02-11T00:27:46;32.20;;;15.00;;
52320;SDS011;38261;54.090;13.382;2023-02-11T00:29:08;32.20;;;16.70;;
52320;SDS011;38261;54.090;13.382;2023-02-11T00:30:30;31.37;;;14.70;;
52320;SDS011;38261;54.090;13.382;2023-02-11T00:31:53;35.63;;;14.50;;
52320;SDS011;38261;54.090;13.382;2023-02-11T00:33:15;31.27;;;15.07;;
52320;SDS011;38261;54.090;13.382;2023-02-11T00:34:37;39.33;;;14.80;;
52320;SDS011;38261;54.090;13.382;2023-02-11T00:36:03;35.47;;;15.67;;
52320;SDS011;38261;54.090;13.382;2023-02-11T00:37:26;33.23;;;14.70;;
52320;SDS011;38261;54.090;13.382;2023-02-11T00:38:49;30.40;;;14.20;;
52320;SDS011;38261;54.090;13.382;2023-02-11T00:40:12;36.33;;;15.90;;
52320;SDS011;38261;54.090;13.382;2023-02-11T00:41:36;30.20;;;14.80;;
52320;SDS011;38261;54.090;13.382;2023-02-11T00:42:58;35.03;;;15.10;;
52320;SDS011;38261;54.090;13.382;2023-02-11T00:44:20;45.53;;;15.47;;
52320;SDS011;38261;54.090;13.382;2023-02-11T00:45:42;36.03;;;15.97;;
52320;SDS011;38261;54.090;13.382;2023-02-11T00:47:05;40.77;;;14.90;;
52320;SDS011;38261;54.090;13.382;2023-02-11T00:48:27;40.50;;;15.87;;
52320;SDS011;38261;54.090;13.382;2023-02-11T00:49:49;39.03;;;14.77;;
52320;SDS011;38261;54.090;13.382;2023-02-11T00:51:11;32.53;;;14.87;;
52320;SDS011;38261;54.090;13.382;2023-02-11T00:52:34;34.13;;;14.40;;
52320;SDS011;38261;54.090;13.382;2023-02-11T00:53:56;31.70;;;15.90;;
52320;SDS011;38261;54.090;13.382;2023-02-11T00:55:18;29.30;;;14.67;;
52320;SDS011;38261;54.090;13.382;2023-02-11T00:56:40;36.90;;;15.27;;
52320;SDS011;38261;54.090;13.382;2023-02-11T00:58:02;35.23;;;15.37;;
52320;SDS011;38261;54.090;13.382;2023-02-11T00:59:24;34.47;;;15.00;;
52320;SDS011;38261;54.090;13.382;2023-02-11T01:00:47;31.70;;;14.88;;
52320;SDS011;38261;54.090;13.382;2023-02-11T01:02:09;32.90;;;15.57;;
52320;SDS011;38261;54.090;13.382;2023-02-11T01:03:31;38.07;;;16.33;;
52320;SDS011;38261;54.090;13.382;2023-02-11T01:04:54;38.50;;;15.53;;
52320;SDS011;38261;54.090;13.382;2023-02-11T01:06:16;39.17;;;16.17;;
52320;SDS011;38261;54.090;13.382;2023-02-11T01:07:39;36.27;;;16.53;;
52320;SDS011;38261;54.090;13.382;2023-02-11T01:09:01;36.30;;;15.67;;
52320;SDS011;38261;54.090;13.382;2023-02-11T01:10:23;36.63;;;15.90;;
52320;SDS011;38261;54.090;13.382;2023-02-11T01:11:46;39.53;;;15.77;;
52320;SDS011;38261;54.090;13.382;2023-02-11T01:13:08;32.50;;;14.57;;
52320;SDS011;38261;54.090;13.382;2023-02-11T01:14:30;31.70;;;14.83;;
52320;SDS011;38261;54.090;13.382;2023-02-11T01:15:53;35.40;;;15.00;;
52320;SDS011;38261;54.090;13.382;2023-02-11T01:17:16;30.63;;;15.20;;
52320;SDS011;38261;54.090;13.382;2023-02-11T01:18:38;29.50;;;15.30;;
52320;SDS011;38261;54.090;13.382;2023-02-11T01:20:05;35.27;;;15.00;;
52320;SDS011;38261;54.090;13.382;2023-02-11T01:21:29;38.63;;;15.13;;
52320;SDS011;38261;54.090;13.382;2023-02-11T01:22:51;35.57;;;16.40;;
52320;SDS011;38261;54.090;13.382;2023-02-11T01:24:13;38.70;;;16.63;;
52320;SDS011;38261;54.090;13.382;2023-02-11T01:25:35;38.07;;;14.90;;
52320;SDS011;38261;54.090;13.382;2023-02-11T01:26:57;33.90;;;17.17;;
52320;SDS011;38261;54.090;13.382;2023-02-11T01:28:20;37.23;;;16.43;;
52320;SDS011;38261;54.090;13.382;2023-02-11T01:29:47;33.33;;;15.57;;
52320;SDS011;38261;54.090;13.382;2023-02-11T01:31:09;38.97;;;16.70;;
52320;SDS011;38261;54.090;13.382;2023-02-11T01:32:31;35.07;;;15.60;;
52320;SDS011;38261;54.090;13.382;2023-02-11T01:33:54;33.27;;;15.23;;
52320;SDS011;38261;54.090;13.382;2023-02-11T01:35:16;41.33;;;16.33;;
52320;SDS011;38261;54.090;13.382;2023-02-11T01:36:38;35.53;;;17.10;;
52320;SDS011;38261;54.090;13.382;2023-02-11T01:38:00;34.33;;;15.87;;
52320;SDS011;38261;54.090;13.382;2023-02-11T01:39:23;35.90;;;16.10;;
52320;SDS011;38261;54.090;13.382;2023-02-11T01:40:49;32.33;;;16.70;;
52320;SDS011;38261;54.090;13.382;2023-02-11T01:42:18;42.50;;;16.37;;
52320;SDS011;38261;54.090;13.382;2023-02-11T01:43:43;34.20;;;16.20;;
52320;SDS011;38261;54.090;13.382;2023-02-11T01:47:10;36.60;;;15.50;;
52320;SDS011;38261;54.090;13.382;2023-02-11T01:48:36;32.53;;;16.10;;
52320;SDS011;38261;54.090;13.382;2023-02-11T01:50:01;38.47;;;15.23;;
52320;SDS011;38261;54.090;13.382;2023-02-11T01:51:25;34.30;;;15.20;;
52320;SDS011;38261;54.090;13.382;2023-02-11T01:53:07;32.87;;;14.87;;
52320;SDS011;38261;54.090;13.382;2023-02-11T01:54:50;32.77;;;15.90;;
52320;SDS011;38261;54.090;13.382;2023-02-11T01:56:48;39.30;;;16.00;;
52320;SDS011;38261;54.090;13.382;2023-02-11T01:58:33;37.07;;;15.97;;
52320;SDS011;38261;54.090;13.382;2023-02-11T02:01:45;34.13;;;15.57;;
52320;SDS011;38261;54.090;13.382;2023-02-11T02:03:14;29.30;;;14.50;;
52320;SDS011;38261;54.090;13.382;2023-02-11T02:04:43;34.17;;;14.90;;
52320;SDS011;38261;54.090;13.382;2023-02-11T02:06:17;32.20;;;16.53;;
52320;SDS011;38261;54.090;13.382;2023-02-11T02:07:48;32.33;;;15.63;;
52320;SDS011;38261;54.090;13.382;2023-02-11T02:09:29;36.13;;;16.20;;
52320;SDS011;38261;54.090;13.382;2023-02-11T02:10:57;37.30;;;16.40;;
52320;SDS011;38261;54.090;13.382;2023-02-11T02:12:21;34.00;;;15.87;;
52320;SDS011;38261;54.090;13.382;2023-02-11T02:13:43;35.93;;;15.97;;
52320;SDS011;38261;54.090;13.382;2023-02-11T02:16:43;35.50;;;16.37;;
52320;SDS011;38261;54.090;13.382;2023-02-11T02:34:01;38.53;;;16.10;;
52320;SDS011;38261;54.090;13.382;2023-02-11T02:39:07;34.67;;;15.47;;
52320;SDS011;38261;54.090;13.382;2023-02-11T02:40:36;34.80;;;16.13;;
52320;SDS011;38261;54.090;13.382;2023-02-11T02:42:05;31.57;;;15.13;;
52320;SDS011;38261;54.090;13.382;2023-02-11T02:43:29;34.40;;;14.80;;
52320;SDS011;38261;54.090;13.382;2023-02-11T02:44:51;28.30;;;14.70;;
52320;SDS011;38261;54.090;13.382;2023-02-11T02:47:41;23.73;;;13.67;;
52320;SDS011;38261;54.090;13.382;2023-02-11T02:49:05;34.20;;;16.50;;
52320;SDS011;38261;54.090;13.382;2023-02-11T02:50:32;36.00;;;14.50;;
52320;SDS011;38261;54.090;13.382;2023-02-11T02:52:00;31.90;;;15.63;;
52320;SDS011;38261;54.090;13.382;2023-02-11T02:57:07;29.63;;;15.40;;
52320;SDS011;38261;54.090;13.382;2023-02-11T03:02:05;32.40;;;15.30;;
52320;SDS011;38261;54.090;13.382;2023-02-11T03:03:42;34.90;;;16.20;;
52320;SDS011;38261;54.090;13.382;2023-02-11T03:08:48;28.90;;;15.03;;
52320;SDS011;38261;54.090;13.382;2023-02-11T03:11:53;29.23;;;13.30;;
52320;SDS011;38261;54.090;13.382;2023-02-11T03:13:15;30.47;;;15.57;;
52320;SDS011;38261;54.090;13.382;2023-02-11T03:14:40;32.37;;;14.27;;
52320;SDS011;38261;54.090;13.382;2023-02-11T03:16:24;26.50;;;13.70;;
52320;SDS011;38261;54.090;13.382;2023-02-11T03:17:48;29.23;;;14.33;;
52320;SDS011;38261;54.090;13.382;2023-02-11T03:19:18;28.03;;;14.23;;
52320;SDS011;38261;54.090;13.382;2023-02-11T03:20:43;26.80;;;13.60;;
52320;SDS011;38261;54.090;13.382;2023-02-11T03:22:11;28.30;;;13.87;;
52320;SDS011;38261;54.090;13.382;2023-02-11T03:23:43;30.00;;;14.50;;
52320;SDS011;38261;54.090;13.382;2023-02-11T03:25:14;27.33;;;14.13;;
52320;SDS011;38261;54.090;13.382;2023-02-11T03:26:42;25.17;;;13.17;;
52320;SDS011;38261;54.090;13.382;2023-02-11T03:28:17;27.03;;;14.27;;
52320;SDS011;38261;54.090;13.382;2023-02-11T03:36:11;28.17;;;12.83;;
52320;SDS011;38261;54.090;13.382;2023-02-11T03:37:41;27.07;;;12.50;;
52320;SDS011;38261;54.090;13.382;2023-02-11T03:39:15;20.87;;;11.63;;
52320;SDS011;38261;54.090;13.382;2023-02-11T03:40:44;18.63;;;11.20;;
52320;SDS011;38261;54.090;13.382;2023-02-11T03:42:07;24.10;;;12.00;;
52320;SDS011;38261;54.090;13.382;2023-02-11T03:43:34;18.33;;;10.90;;
52320;SDS011;38261;54.090;13.382;2023-02-11T03:45:02;22.37;;;11.93;;
52320;SDS011;38261;54.090;13.382;2023-02-11T03:46:35;18.30;;;10.40;;
52320;SDS011;38261;54.090;13.382;2023-02-11T03:48:07;22.43;;;11.67;;
52320;SDS011;38261;54.090;13.382;2023-02-11T03:49:32;23.90;;;11.13;;
52320;SDS011;38261;54.090;13.382;2023-02-11T03:50:57;24.10;;;11.47;;
52320;SDS011;38261;54.090;13.382;2023-02-11T03:52:22;23.43;;;12.60;;
52320;SDS011;38261;54.090;13.382;2023-02-11T03:53:46;28.90;;;11.33;;
52320;SDS011;38261;54.090;13.382;2023-02-11T03:55:12;24.00;;;12.90;;
52320;SDS011;38261;54.090;13.382;2023-02-11T03:56:40;21.20;;;11.57;;
52320;SDS011;38261;54.090;13.382;2023-02-11T03:58:11;28.00;;;12.17;;
52320;SDS011;38261;54.090;13.382;2023-02-11T03:59:48;22.17;;;12.10;;
52320;SDS011;38261;54.090;13.382;2023-02-11T04:01:19;16.87;;;11.20;;
52320;SDS011;38261;54.090;13.382;2023-02-11T04:02:42;24.80;;;11.80;;
52320;SDS011;38261;54.090;13.382;2023-02-11T04:04:05;21.50;;;11.50;;
52320;SDS011;38261;54.090;13.382;2023-02-11T04:05:27;19.60;;;10.77;;
52320;SDS011;38261;54.090;13.382;2023-02-11T04:06:49;23.57;;;11.67;;
52320;SDS011;38261;54.090;13.382;2023-02-11T04:08:11;18.97;;;11.67;;
52320;SDS011;38261;54.090;13.382;2023-02-11T04:09:33;23.63;;;11.80;;
52320;SDS011;38261;54.090;13.382;2023-02-11T04:10:56;29.73;;;12.07;;
52320;SDS011;38261;54.090;13.382;2023-02-11T04:12:18;21.93;;;11.07;;
52320;SDS011;38261;54.090;13.382;2023-02-11T04:13:40;20.47;;;11.60;;
52320;SDS011;38261;54.090;13.382;2023-02-11T04:15:03;25.40;;;11.47;;
52320;SDS011;38261;54.090;13.382;2023-02-11T04:16:25;24.43;;;11.63;;
52320;SDS011;38261;54.090;13.382;2023-02-11T04:17:47;19.47;;;11.60;;
52320;SDS011;38261;54.090;13.382;2023-02-11T04:19:10;25.67;;;13.47;;
52320;SDS011;38261;54.090;13.382;2023-02-11T04:20:32;22.90;;;11.13;;
52320;SDS011;38261;54.090;13.382;2023-02-11T04:21:54;25.10;;;12.47;;
52320;SDS011;38261;54.090;13.382;2023-02-11T04:23:16;25.07;;;13.00;;
52320;SDS011;38261;54.090;13.382;2023-02-11T04:24:38;21.13;;;11.80;;
52320;SDS011;38261;54.090;13.382;2023-02-11T04:26:00;21.70;;;11.87;;
52320;SDS011;38261;54.090;13.382;2023-02-11T04:27:22;26.90;;;11.50;;
52320;SDS011;38261;54.090;13.382;2023-02-11T04:28:45;27.10;;;13.23;;
52320;SDS011;38261;54.090;13.382;2023-02-11T04:30:07;24.63;;;13.37;;
52320;SDS011;38261;54.090;13.382;2023-02-11T04:31:29;21.70;;;12.63;;
52320;SDS011;38261;54.090;13.382;2023-02-11T04:32:51;22.33;;;12.27;;
52320;SDS011;38261;54.090;13.382;2023-02-11T04:34:15;30.20;;;13.70;;
52320;SDS011;38261;54.090;13.382;2023-02-11T04:35:37;27.23;;;12.83;;
52320;SDS011;38261;54.090;13.382;2023-02-11T04:36:59;23.23;;;12.17;;
52320;SDS011;38261;54.090;13.382;2023-02-11T04:38:21;22.17;;;12.93;;
52320;SDS011;38261;54.090;13.382;2023-02-11T04:39:44;20.90;;;11.93;;
52320;SDS011;38261;54.090;13.382;2023-02-11T04:41:06;22.50;;;13.00;;
52320;SDS011;38261;54.090;13.382;2023-02-11T04:42:28;23.43;;;12.77;;
52320;SDS011;38261;54.090;13.382;2023-02-11T04:43:50;23.10;;;11.43;;
52320;SDS011;38261;54.090;13.382;2023-02-11T04:45:12;25.70;;;12.53;;
52320;SDS011;38261;54.090;13.382;2023-02-11T04:46:34;26.10;;;12.40;;
52320;SDS011;38261;54.090;13.382;2023-02-11T04:47:57;31.23;;;13.10;;
52320;SDS011;38261;54.090;13.382;2023-02-11T04:49:19;22.90;;;12.00;;
52320;SDS011;38261;54.090;13.382;2023-02-11T04:50:41;20.93;;;11.90;;
52320;SDS011;38261;54.090;13.382;2023-02-11T04:52:03;22.33;;;12.20;;
52320;SDS011;38261;54.090;13.382;2023-02-11T04:53:26;26.10;;;13.70;;
52320;SDS011;38261;54.090;13.382;2023-02-11T04:54:48;25.47;;;12.70;;
52320;SDS011;38261;54.090;13.382;2023-02-11T04:56:10;23.30;;;12.27;;
52320;SDS011;38261;54.090;13.382;2023-02-11T04:57:32;24.83;;;12.10;;
52320;SDS011;38261;54.090;13.382;2023-02-11T04:58:54;24.00;;;11.87;;
52320;SDS011;38261;54.090;13.382;2023-02-11T05:00:16;26.80;;;13.67;;
52320;SDS011;38261;54.090;13.382;2023-02-11T05:01:38;28.63;;;14.20;;
52320;SDS011;38261;54.090;13.382;2023-02-11T05:03:01;25.20;;;13.10;;
52320;SDS011;38261;54.090;13.382;2023-02-11T05:04:23;22.00;;;12.00;;
52320;SDS011;38261;54.090;13.382;2023-02-11T05:05:45;29.10;;;12.73;;
52320;SDS011;38261;54.090;13.382;2023-02-11T05:07:07;26.23;;;12.87;;
52320;SDS011;38261;54.090;13.382;2023-02-11T05:08:29;28.30;;;12.50;;
52320;SDS011;38261;54.090;13.382;2023-02-11T05:09:51;26.23;;;12.97;;
52320;SDS011;38261;54.090;13.382;2023-02-11T05:11:15;23.00;;;12.70;;
52320;SDS011;38261;54.090;13.382;2023-02-11T05:12:38;26.00;;;13.07;;
52320;SDS011;38261;54.090;13.382;2023-02-11T05:14:00;28.70;;;13.73;;
52320;SDS011;38261;54.090;13.382;2023-02-11T05:15:23;27.83;;;14.10;;
52320;SDS011;38261;54.090;13.382;2023-02-11T05:16:45;28.10;;;13.07;;
52320;SDS011;38261;54.090;13.382;2023-02-11T05:18:07;24.97;;;13.60;;
52320;SDS011;38261;54.090;13.382;2023-02-11T05:19:29;26.20;;;14.27;;
52320;SDS011;38261;54.090;13.382;2023-02-11T05:20:52;24.20;;;13.23;;
52320;SDS011;38261;54.090;13.382;2023-02-11T05:22:14;30.60;;;14.40;;
52320;SDS011;38261;54.090;13.382;2023-02-11T05:23:37;31.20;;;14.60;;
52320;SDS011;38261;54.090;13.382;2023-02-11T05:24:59;28.37;;;15.03;;
52320;SDS011;38261;54.090;13.382;2023-02-11T05:26:21;28.63;;;13.77;;
52320;SDS011;38261;54.090;13.382;2023-02-11T05:27:43;26.30;;;14.03;;
52320;SDS011;38261;54.090;13.382;2023-02-11T05:29:05;28.37;;;14.10;;
52320;SDS011;38261;54.090;13.382;2023-02-11T05:30:27;27.57;;;14.90;;
52320;SDS011;38261;54.090;13.382;2023-02-11T05:31:49;33.13;;;14.50;;
52320;SDS011;38261;54.090;13.382;2023-02-11T05:33:11;26.70;;;13.73;;
52320;SDS011;38261;54.090;13.382;2023-02-11T05:34:34;27.57;;;13.20;;
52320;SDS011;38261;54.090;13.382;2023-02-11T05:36:00;41.13;;;14.70;;
52320;SDS011;38261;54.090;13.382;2023-02-11T05:37:23;32.63;;;14.70;;
52320;SDS011;38261;54.090;13.382;2023-02-11T05:38:46;27.60;;;13.90;;
52320;SDS011;38261;54.090;13.382;2023-02-11T05:40:08;30.57;;;14.30;;
52320;SDS011;38261;54.090;13.382;2023-02-11T05:41:30;34.00;;;14.40;;
52320;SDS011;38261;54.090;13.382;2023-02-11T05:42:52;34.00;;;15.60;;
52320;SDS011;38261;54.090;13.382;2023-02-11T05:44:14;32.90;;;14.63;;
52320;SDS011;38261;54.090;13.382;2023-02-11T05:45:36;30.53;;;13.50;;
52320;SDS011;38261;54.090;13.382;2023-02-11T05:46:58;32.63;;;13.93;;
52320;SDS011;38261;54.090;13.382;2023-02-11T05:48:21;30.60;;;14.77;;
52320;SDS011;38261;54.090;13.382;2023-02-11T05:49:43;30.27;;;14.43;;
52320;SDS011;38261;54.090;13.382;2023-02-11T05:51:05;38.23;;;14.60;;
52320;SDS011;38261;54.090;13.382;2023-02-11T05:52:27;29.67;;;14.73;;
52320;SDS011;38261;54.090;13.382;2023-02-11T05:53:49;28.50;;;15.00;;
52320;SDS011;38261;54.090;13.382;2023-02-11T05:55:11;36.80;;;15.00;;
52320;SDS011;38261;54.090;13.382;2023-02-11T05:56:33;31.40;;;15.30;;
52320;SDS011;38261;54.090;13.382;2023-02-11T05:57:55;32.10;;;14.70;;
52320;SDS011;38261;54.090;13.382;2023-02-11T05:59:17;29.63;;;14.57;;
52320;SDS011;38261;54.090;13.382;2023-02-11T06:00:39;35.97;;;14.07;;
52320;SDS011;38261;54.090;13.382;2023-02-11T06:02:01;27.93;;;15.30;;
52320;SDS011;38261;54.090;13.382;2023-02-11T06:03:24;28.60;;;13.90;;
52320;SDS011;38261;54.090;13.382;2023-02-11T06:04:46;36.80;;;14.57;;
52320;SDS011;38261;54.090;13.382;2023-02-11T06:06:10;31.03;;;14.77;;
52320;SDS011;38261;54.090;13.382;2023-02-11T06:07:33;27.97;;;15.10;;
52320;SDS011;38261;54.090;13.382;2023-02-11T06:08:55;27.10;;;14.60;;
52320;SDS011;38261;54.090;13.382;2023-02-11T06:10:17;25.67;;;14.27;;
52320;SDS011;38261;54.090;13.382;2023-02-11T06:11:39;35.07;;;14.10;;
52320;SDS011;38261;54.090;13.382;2023-02-11T06:13:01;24.93;;;14.20;;
52320;SDS011;38261;54.090;13.382;2023-02-11T06:14:23;26.40;;;13.03;;
52320;SDS011;38261;54.090;13.382;2023-02-11T06:15:54;30.30;;;14.43;;
52320;SDS011;38261;54.090;13.382;2023-02-11T06:17:18;35.97;;;14.90;;
52320;SDS011;38261;54.090;13.382;2023-02-11T06:18:41;26.83;;;13.00;;
52320;SDS011;38261;54.090;13.382;2023-02-11T06:20:05;34.57;;;14.23;;
52320;SDS011;38261;54.090;13.382;2023-02-11T06:21:28;21.53;;;13.10;;
52320;SDS011;38261;54.090;13.382;2023-02-11T06:23:04;31.23;;;12.57;;
52320;SDS011;38261;54.090;13.382;2023-02-11T06:24:26;27.60;;;13.13;;
52320;SDS011;38261;54.090;13.382;2023-02-11T06:26:08;24.57;;;13.30;;
52320;SDS011;38261;54.090;13.382;2023-02-11T06:27:40;28.33;;;12.17;;
52320;SDS011;38261;54.090;13.382;2023-02-11T06:29:02;33.97;;;13.33;;
52320;SDS011;38261;54.090;13.382;2023-02-11T06:30:24;27.07;;;13.90;;
52320;SDS011;38261;54.090;13.382;2023-02-11T06:31:46;34.67;;;14.07;;
52320;SDS011;38261;54.090;13.382;2023-02-11T06:33:08;34.40;;;14.77;;
52320;SDS011;38261;54.090;13.382;2023-02-11T06:34:30;29.67;;;13.47;;
52320;SDS011;38261;54.090;13.382;2023-02-11T06:35:52;30.43;;;13.10;;
52320;SDS011;38261;54.090;13.382;2023-02-11T06:37:14;33.33;;;13.00;;
52320;SDS011;38261;54.090;13.382;2023-02-11T06:38:36;30.63;;;13.50;;
52320;SDS011;38261;54.090;13.382;2023-02-11T06:39:58;24.83;;;12.90;;
52320;SDS011;38261;54.090;13.382;2023-02-11T06:41:21;28.83;;;13.50;;
52320;SDS011;38261;54.090;13.382;2023-02-11T06:42:43;32.30;;;13.73;;
52320;SDS011;38261;54.090;13.382;2023-02-11T06:44:05;22.93;;;12.73;;
52320;SDS011;38261;54.090;13.382;2023-02-11T06:45:27;25.37;;;14.17;;
52320;SDS011;38261;54.090;13.382;2023-02-11T06:46:49;26.13;;;12.90;;
52320;SDS011;38261;54.090;13.382;2023-02-11T06:48:12;23.20;;;12.80;;
52320;SDS011;38261;54.090;13.382;2023-02-11T06:49:34;33.03;;;12.90;;
52320;SDS011;38261;54.090;13.382;2023-02-11T06:50:56;24.30;;;12.73;;
52320;SDS011;38261;54.090;13.382;2023-02-11T06:52:21;30.90;;;12.80;;
52320;SDS011;38261;54.090;13.382;2023-02-11T06:53:44;35.00;;;13.10;;
52320;SDS011;38261;54.090;13.382;2023-02-11T06:55:07;21.87;;;12.80;;
52320;SDS011;38261;54.090;13.382;2023-02-11T06:56:30;25.50;;;12.80;;
52320;SDS011;38261;54.090;13.382;2023-02-11T06:57:53;26.53;;;12.37;;
52320;SDS011;38261;54.090;13.382;2023-02-11T06:59:16;31.90;;;13.37;;
52320;SDS011;38261;54.090;13.382;2023-02-11T07:00:39;23.10;;;11.70;;
52320;SDS011;38261;54.090;13.382;2023-02-11T07:02:01;30.40;;;12.60;;
52320;SDS011;38261;54.090;13.382;2023-02-11T07:03:24;27.40;;;12.40;;
52320;SDS011;38261;54.090;13.382;2023-02-11T07:04:46;32.03;;;13.13;;
52320;SDS011;38261;54.090;13.382;2023-02-11T07:06:10;23.80;;;10.93;;
52320;SDS011;38261;54.090;13.382;2023-02-11T07:07:37;28.13;;;11.07;;
52320;SDS011;38261;54.090;13.382;2023-02-11T07:08:59;27.93;;;11.17;;
52320;SDS011;38261;54.090;13.382;2023-02-11T07:10:21;25.13;;;11.13;;
52320;SDS011;38261;54.090;13.382;2023-02-11T07:11:43;22.70;;;11.83;;
52320;SDS011;38261;54.090;13.382;2023-02-11T07:13:06;23.60;;;10.83;;
52320;SDS011;38261;54.090;13.382;2023-02-11T07:14:28;26.27;;;11.00;;
52320;SDS011;38261;54.090;13.382;2023-02-11T07:15:50;24.97;;;10.60;;
52320;SDS011;38261;54.090;13.382;2023-02-11T07:17:13;22.23;;;10.93;;
52320;SDS011;38261;54.090;13.382;2023-02-11T07:18:35;21.10;;;10.53;;
52320;SDS011;38261;54.090;13.382;2023-02-11T07:19:57;25.20;;;10.87;;
52320;SDS011;38261;54.090;13.382;2023-02-11T07:21:20;20.53;;;11.00;;
52320;SDS011;38261;54.090;13.382;2023-02-11T07:22:44;23.90;;;10.47;;
52320;SDS011;38261;54.090;13.382;2023-02-11T07:24:07;18.77;;;10.40;;
52320;SDS011;38261;54.090;13.382;2023-02-11T07:25:31;24.87;;;10.07;;
52320;SDS011;38261;54.090;13.382;2023-02-11T07:26:54;23.17;;;10.97;;
52320;SDS011;38261;54.090;13.382;2023-02-11T07:28:16;21.13;;;10.97;;
52320;SDS011;38261;54.090;13.382;2023-02-11T07:29:38;25.03;;;12.33;;
52320;SDS011;38261;54.090;13.382;2023-02-11T07:31:06;24.90;;;11.20;;
52320;SDS011;38261;54.090;13.382;2023-02-11T07:32:29;33.47;;;11.73;;
52320;SDS011;38261;54.090;13.382;2023-02-11T07:33:52;21.43;;;11.00;;
52320;SDS011;38261;54.090;13.382;2023-02-11T07:35:16;30.13;;;11.60;;
52320;SDS011;38261;54.090;13.382;2023-02-11T07:36:38;23.13;;;9.80;;
52320;SDS011;38261;54.090;13.382;2023-02-11T07:38:00;20.63;;;10.47;;
52320;SDS011;38261;54.090;13.382;2023-02-11T07:39:23;18.23;;;11.07;;
52320;SDS011;38261;54.090;13.382;2023-02-11T07:40:47;26.03;;;10.87;;
52320;SDS011;38261;54.090;13.382;2023-02-11T07:42:10;27.27;;;10.57;;
52320;SDS011;38261;54.090;13.382;2023-02-11T07:43:32;20.70;;;11.20;;
52320;SDS011;38261;54.090;13.382;2023-02-11T07:44:54;22.30;;;10.33;;
52320;SDS011;38261;54.090;13.382;2023-02-11T07:46:18;21.40;;;10.40;;
52320;SDS011;38261;54.090;13.382;2023-02-11T07:47:42;22.90;;;11.03;;
52320;SDS011;38261;54.090;13.382;2023-02-11T07:49:04;17.80;;;10.57;;
52320;SDS011;38261;54.090;13.382;2023-02-11T07:50:26;27.40;;;10.60;;
52320;SDS011;38261;54.090;13.382;2023-02-11T07:51:48;26.67;;;11.93;;
52320;SDS011;38261;54.090;13.382;2023-02-11T07:53:11;29.43;;;11.63;;
52320;SDS011;38261;54.090;13.382;2023-02-11T07:54:34;23.10;;;10.13;;
52320;SDS011;38261;54.090;13.382;2023-02-11T07:55:56;34.50;;;11.03;;
52320;SDS011;38261;54.090;13.382;2023-02-11T07:57:18;24.93;;;11.13;;
52320;SDS011;38261;54.090;13.382;2023-02-11T07:58:42;26.67;;;10.10;;
52320;SDS011;38261;54.090;13.382;2023-02-11T08:00:05;19.90;;;9.80;;
52320;SDS011;38261;54.090;13.382;2023-02-11T08:01:28;18.03;;;10.00;;
52320;SDS011;38261;54.090;13.382;2023-02-11T08:02:50;19.93;;;10.10;;
52320;SDS011;38261;54.090;13.382;2023-02-11T08:04:12;26.33;;;11.17;;
52320;SDS011;38261;54.090;13.382;2023-02-11T08:05:36;20.10;;;10.47;;
52320;SDS011;38261;54.090;13.382;2023-02-11T08:06:59;19.40;;;11.10;;
52320;SDS011;38261;54.090;13.382;2023-02-11T08:08:21;31.87;;;11.33;;
52320;SDS011;38261;54.090;13.382;2023-02-11T08:09:43;25.83;;;10.63;;
52320;SDS011;38261;54.090;13.382;2023-02-11T08:11:09;23.33;;;10.30;;
52320;SDS011;38261;54.090;13.382;2023-02-11T08:12:33;24.07;;;11.33;;
52320;SDS011;38261;54.090;13.382;2023-02-11T08:13:55;21.83;;;10.60;;
52320;SDS011;38261;54.090;13.382;2023-02-11T08:15:18;24.63;;;10.93;;
52320;SDS011;38261;54.090;13.382;2023-02-11T08:16:40;26.77;;;10.53;;
52320;SDS011;38261;54.090;13.382;2023-02-11T08:18:02;25.17;;;10.40;;
52320;SDS011;38261;54.090;13.382;2023-02-11T08:19:24;23.80;;;11.10;;
52320;SDS011;38261;54.090;13.382;2023-02-11T08:20:47;33.23;;;10.63;;
52320;SDS011;38261;54.090;13.382;2023-02-11T08:22:10;25.00;;;10.40;;
52320;SDS011;38261;54.090;13.382;2023-02-11T08:23:34;19.20;;;10.20;;
52320;SDS011;38261;54.090;13.382;2023-02-11T08:24:57;30.33;;;9.93;;
52320;SDS011;38261;54.090;13.382;2023-02-11T08:26:21;23.57;;;9.73;;
52320;SDS011;38261;54.090;13.382;2023-02-11T08:27:45;21.73;;;10.77;;
52320;SDS011;38261;54.090;13.382;2023-02-11T08:29:08;27.23;;;9.20;;
52320;SDS011;38261;54.090;13.382;2023-02-11T08:30:32;23.20;;;10.47;;
52320;SDS011;38261;54.090;13.382;2023-02-11T08:31:54;31.77;;;9.97;;
52320;SDS011;38261;54.090;13.382;2023-02-11T08:33:17;33.87;;;9.60;;
52320;SDS011;38261;54.090;13.382;2023-02-11T08:34:39;21.10;;;9.77;;
52320;SDS011;38261;54.090;13.382;2023-02-11T08:36:06;27.03;;;9.20;;
52320;SDS011;38261;54.090;13.382;2023-02-11T08:37:30;21.60;;;9.00;;
52320;SDS011;38261;54.090;13.382;2023-02-11T08:38:54;22.60;;;9.70;;
52320;SDS011;38261;54.090;13.382;2023-02-11T08:40:36;21.17;;;8.60;;
52320;SDS011;38261;54.090;13.382;2023-02-11T08:41:58;29.17;;;9.30;;
52320;SDS011;38261;54.090;13.382;2023-02-11T08:43:21;23.03;;;8.90;;
52320;SDS011;38261;54.090;13.382;2023-02-11T08:44:44;19.07;;;8.03;;
52320;SDS011;38261;54.090;13.382;2023-02-11T08:46:07;23.13;;;8.60;;
52320;SDS011;38261;54.090;13.382;2023-02-11T08:47:30;22.67;;;8.10;;
52320;SDS011;38261;54.090;13.382;2023-02-11T08:48:52;17.13;;;7.07;;